Killbuck, Ohio
Current Conditions -  °F | °C
As of 12:56 PM on Friday 21 Nov 2014 (Local Time) from KBJJ Reporting Station
Clear Clear  
Wind Chill: 16°   Ceiling: Unl
Heat Index: 24°   Visibility: 10mi
Dew Point:   Wind: 7mph
Humidity: 48%   Direction: 310°NW
Pressure: 30.47"   Gusts: NA
Location:  40.5°N, 81.98°W
Report Text: KBJJ 211756Z AUTO 31006KT 10SM CLR M04/M14 A3047 RMK AO2 SLP337 T10441139 11044 21128 50008 TSNO
Loading
Personal Weather Stations






























Interactive Weather Map New forecast layout! Learn more

10-Day Weather Forecast

Advertisements
Track Severe Weather on mobile